Aérodrome :
LOGIN :

S'inscrire | Disclaimer

   EN    FR    IT 

 










Légende :    VFR   VFR Marginal   IFR   IFR Intensif   IFR Très Intensif
Visi : 
Plafond : 
>= 8 km
>= 3000ft
5 à 8 km
1000 à 3000 ft
1500m à 5 km
500 à 1000 ft
800 à 1500m
200 à 500 ft
< 800m
< 200 ft
Symboles :   Orages  Brouillard  Fortes neiges  Fortes précipitations  Vent > 20 kt
SIGMETs :   Divers  Orages  Givrage  Turbulence  Onde Orograph.  Cendres Volcan.






- Altitude de l'aérodrome : 83 ft
- Code IATA : VOL


LGBL - Aghialos Volos

DERNIER METAR :
  • 282350Z 24006KT CAVOK 07/03 Q1017

METARs EXPIRÉS :
  • 282250Z 24004KT CAVOK 07/04 Q1017
  • 282150Z 25005KT CAVOK 06/03 Q1018

TAF TAF LGBL
Valide du 29 à 00h jusqu'au 29 à 09h UTC


282300Z 2900/2909 30008KT 9999 FEW030 SCT080
BECMG 2906/2908 SCT020 BKN080
PROB30
TEMPO 2907/2909 5000 RA FEW015 BKN020 BKN080



MET'MAP, la Météo Aéronautique d'un coup d'oeil ! - Copyright ORBIFLY Décembre 2007 - Disclaimer

ORBIFLY MET'MAP TEAM :

Programmation & Développement : Alexandra Zaïnal
Sur une idée originale de : Baudouin d'Aumeries
Assistance à la programmation : Marc-Olivier Méhu
Soutien technique & logistique : Manuel Goepfert

Contact : metmap@orbifly.com




SOURCES & CREDITS :

   NOAA